Lima, Perú

2:46 PM PET en Noviembre 23, 2014 (GMT -0500)
Jorge Chavez International | Change Station
CLOSE
Current Station
Aeropuerto
Location: Lima,
Altura: 43 ft
Estaciones meteorológicas cercanas

Alt 43 ft 12.01 °S, 77.12 °W | Updated 46 minutes ago

Overcast
Nublado
70 ° F
Sensación térmica 70 ° F
N
8
Viento Variable Viento desde ONO

Hoy
Alta -- | Baja -- ° F
--% Posibilidad de precipitaciones
Ayer
Alta -- | Baja -- ° F
Precip. -- pul
5:33 AM 6:16 PM
Luna nueva, 2% visible
Presión 29.92 pul
Visibilidad 6.2 Millas
Nubes Nublado 3000 ft
Punto de rocío 63 ° F
Humedad 78%
Precipitaciones 0.00 pul
Espesor de la nieve No disponible.
UV 4 de una escala de 12
Polen No disponible.
Calidad del aire No disponible.
Flu Activity No disponible.
METAR SPIM 231900Z 29007KT 260V330 9999 OVC030 21/17 Q1013 NOSIG RMK PP000

More Conditions Fewer Conditions

Presión 29.92 pul
Visibilidad 6.2 Millas
Nubes Nublado 3000 ft
Punto de rocío 63 ° F
Humedad 78%
Precipitaciones 0.00 pul
Espesor de la nieve No disponible.
UV 4 de una escala de 12
Polen No disponible.
Calidad del aire No disponible.
Flu Activity No disponible.
METAR SPIM 231900Z 29007KT 260V330 9999 OVC030 21/17 Q1013 NOSIG RMK PP000

More Conditions Fewer Conditions

10-Day Weather Forecast

Almanac

Astronomía

Nov. 23, 2014 Salida Puesta
Hora real
Crepúsculo civil
Crepúsculo náutico
Crepúsculo astronómico
Luna
Horas de luz
Horas de luz
Tomorrow will be .
, % of the Moon is Illuminated

Extremos de hoy

Máximos del país Bajas del país

Community

WunderPhotos

Upload Photos

1,773,161 ¡fotos cargadas!

WunderBlogs® & News

Nearby

Calidad del aire

  Calidad del aire Índice AQ Contaminante
Not available.

Grosos de nieve

Estación Profundido Altura

Actividad de terremotos

Ciudad Distance Mag. Tiempo y dato
Magnitud mínima muestra es 2,5.

Temperaturas de aguas costeras

Lugar Temperatura

Estaciones meteorológicas cercanas